Latest Coastal Weather Observations for Milingimbi

IDD60701

Issued at 7:31 pm CST Tuesday 26 May 2015 (issued every 10 minutes, with the page automatically refreshed every 10 minutes)

About coastal observations | Map of coastal stations | Coastal observations for NT | Marine services | Other Formats
Station Details ID: 014404 Name: MILINGIMBI AIRPORT Lat: -12.09 Lon: 134.89 Height: 15.0 m
Data from the previous 72 hours. | See also: Recent months at Milingimbi
Date/Time
CST
Temp

°C
Wind Pressure Rain
since 9am
mm
Weather Cloud Vis
km
Sea
Height
m
Swell
Dir
 
Speed
knots
Gust
knots
hPa Trend Height
m
Period
s
Dir
26/07:30pm 28.7 SE 9 13 1013.9 - 0.0 - - - - - - -
26/07:00pm 29.4 SE 11 14 1013.3 - 0.0 - - - - - - -
26/06:30pm 29.3 ESE 10 13 1013.0 - 0.0 - - - - - - -
26/06:00pm 29.9 ESE 11 14 1012.7 - 0.0 - - - - - - -
26/05:30pm 30.6 E 8 11 1012.6 - 0.0 - - - - - - -
26/05:00pm 31.0 E 7 11 1012.4 - 0.0 - - - - - - -
26/04:30pm 31.6 E 7 13 1012.3 - 0.0 - - - - - - -
26/04:00pm 31.7 E 10 14 1012.2 - 0.0 - - - - - - -
26/03:30pm 32.4 E 8 13 1012.3 - 0.0 - - - - - - -
26/03:00pm 32.3 E 9 15 1012.4 - 0.0 - - - - - - -
26/02:30pm 30.9 E 8 14 1012.5 - 0.0 - - - - - - -
26/02:00pm 31.4 NE 10 14 1013.0 - 0.0 - - - - - - -
26/01:30pm 31.3 E 11 17 1013.5 - 0.0 - - - - - - -
26/01:00pm 31.6 ESE 10 14 1013.9 - 0.0 - - - - - - -
26/12:30pm 31.3 ESE 12 17 1014.5 - 0.0 - - - - - - -
26/12:00pm 31.3 ESE 12 16 1014.9 - 0.0 - - - - - - -
26/11:30am 30.2 E 10 15 1015.4 - 0.0 - - - - - - -
26/11:00am 29.9 ESE 11 20 1015.8 - 0.0 - - - - - - -
26/10:30am 29.3 ESE 13 18 1016.2 - 0.0 - - - - - - -
26/10:00am 28.9 SE 15 19 1016.3 - 0.0 - - - - - - -
26/09:30am 28.6 ESE 14 18 1016.4 - 0.0 - - - - - - -
26/09:00am 27.7 SE 9 14 1016.2 - 1.0 - - - - - - -
26/08:30am 25.5 SE 10 15 1016.2 - 1.0 - - - - - - -
26/08:00am 25.1 SE 9 13 1015.9 - 1.0 - - - - - - -
26/07:30am 23.9 SSE 7 10 1015.8 - 1.0 - - - - - - -
26/07:00am 23.7 SSE 7 9 1015.6 - 1.0 - - - - - - -
26/06:30am 23.7 SSE 7 10 1015.3 - 1.0 - - - - - - -
26/06:00am 23.8 SSE 7 9 1015.1 - 1.0 - - - - - - -
26/05:30am 23.8 SSE 6 9 1015.0 - 1.0 - - - - - - -
26/05:00am 23.9 SSE 7 9 1015.0 - 1.0 - - - - - - -
26/04:30am 24.0 SSE 8 11 1014.7 - 1.0 - - - - - - -
26/04:00am 24.1 SSE 8 11 1014.6 - 1.0 - - - - - - -
26/03:30am 24.3 SE 8 11 1014.7 - 1.0 - - - - - - -
26/03:00am 24.7 SSE 8 10 1014.8 - 1.0 - - - - - - -
26/02:30am 24.9 SSE 9 11 1014.9 - 1.0 - - - - - - -
26/02:00am 25.5 SE 10 14 1015.1 - 1.0 - - - - - - -
26/01:30am 25.5 SE 8 11 1015.5 - 1.0 - - - - - - -
26/01:00am 25.3 SE 9 11 1015.7 - 1.0 - - - - - - -
26/12:30am 25.7 SSE 9 13 1016.0 - 1.0 - - - - - - -
26/12:00am 25.6 SSE 8 11 1016.2 - 1.0 - - - - - - -
 
Date/Time
CST
Temp

°C
Wind Pressure Rain
since 9am
mm
Weather Cloud Vis
km
Sea
Height
m
Swell
Dir
 
Speed
knots
Gust
knots
hPa Trend Height
m
Period
s
Dir
25/11:30pm 25.8 SSE 7 10 1016.6 - 1.0 - - - - - - -
25/11:00pm 25.9 SSE 8 12 1016.7 - 1.0 - - - - - - -
25/10:30pm 26.1 SSE 8 11 1016.9 - 1.0 - - - - - - -
25/10:00pm 26.2 SSE 8 11 1016.8 - 1.0 - - - - - - -
25/09:30pm 26.4 SSE 7 9 1016.6 - 1.0 - - - - - - -
25/09:00pm 26.7 SSE 7 11 1016.2 - 1.0 - - - - - - -
25/08:30pm 26.8 SE 7 9 1016.0 - 1.0 - - - - - - -
25/08:00pm 27.2 SE 10 15 1015.4 - 1.0 - - - - - - -
25/07:30pm 27.0 SE 7 10 1015.1 - 1.0 - - - - - - -
25/07:00pm 26.6 SE 3 4 1014.6 - 1.0 - - - - - - -
25/06:30pm 26.6 S 5 7 1014.2 - 1.0 - - - - - - -
25/06:00pm 28.1 ENE 4 6 1014.0 - 0.0 - - - - - - -
25/05:30pm 29.4 SE 5 6 1013.7 - 0.0 - - - - - - -
25/05:00pm 30.3 ESE 4 7 1013.4 - 0.0 - - - - - - -
25/04:30pm 30.3 E 5 7 1013.2 - 0.0 - - - - - - -
25/04:00pm 30.5 E 5 9 1013.2 - 0.0 - - - - - - -
25/03:30pm 30.8 E 6 9 1013.2 - 0.0 - - - - - - -
25/03:00pm 31.4 E 6 9 1013.1 - 0.0 - - - - - - -
25/02:30pm 30.8 E 7 10 1013.4 - 0.0 - - - - - - -
25/02:00pm 30.8 E 8 11 1013.8 - 0.0 - - - - - - -
25/01:30pm 30.2 ESE 8 13 1014.2 - 0.0 - - - - - - -
25/01:00pm 30.0 ESE 9 13 1014.6 - 0.0 - - - - - - -
25/12:30pm 30.6 E 10 13 1014.9 - 0.0 - - - - - - -
25/12:00pm 30.3 SE 11 15 1015.1 - 0.0 - - - - - - -
25/11:30am 29.7 SE 12 16 1015.7 - 0.0 - - - - - - -
25/11:00am 28.9 ESE 12 19 1015.9 - 0.0 - - - - - - -
25/10:30am 28.5 SE 12 17 1016.2 - 0.0 - - - - - - -
25/10:00am 27.9 ESE 12 16 1016.3 - 0.0 - - - - - - -
25/09:30am 26.6 SE 12 16 1016.5 - 0.0 - - - - - - -
25/09:00am 26.2 SE 12 16 1016.6 - 0.0 - - - - - - -
25/08:30am 25.6 SE 10 14 1016.8 - 0.0 - - - - - - -
25/08:00am 24.1 SSE 9 12 1016.5 - 0.0 - - - - - - -
25/07:30am 23.2 SSE 9 15 1016.2 - 0.0 - - - - - - -
25/07:00am 22.6 SSE 7 11 1016.0 - 0.0 - - - - - - -
25/06:30am 22.6 SSE 7 8 1015.7 - 0.0 - - - - - - -
25/06:00am 22.8 SE 8 11 1015.3 - 0.0 - - - - - - -
25/05:30am 22.7 SSE 7 9 1015.2 - 0.0 - - - - - - -
25/05:00am 22.6 SSE 7 9 1015.1 - 0.0 - - - - - - -
25/04:30am 22.6 SSE 8 11 1014.8 - 0.0 - - - - - - -
25/04:00am 22.8 SSE 8 11 1014.9 - 0.0 - - - - - - -
25/03:30am 23.0 SSE 7 10 1014.9 - 0.0 - - - - - - -
25/03:00am 23.1 SSE 7 9 1015.1 - 0.0 - - - - - - -
25/02:30am 23.6 SE 7 10 1015.5 - 0.0 - - - - - - -
25/02:00am 23.8 SE 8 11 1015.7 - 0.0 - - - - - - -
25/01:30am 24.1 SE 8 10 1015.7 - 0.0 - - - - - - -
25/01:00am 24.3 SSE 7 10 1015.9 - 0.0 - - - - - - -
25/12:30am 24.5 SSE 7 9 1016.1 - 0.0 - - - - - - -
25/12:00am 24.9 SE 7 10 1016.0 - 0.0 - - - - - - -
 
Date/Time
CST
Temp

°C
Wind Pressure Rain
since 9am
mm
Weather Cloud Vis
km
Sea
Height
m
Swell
Dir
 
Speed
knots
Gust
knots
hPa Trend Height
m
Period
s
Dir
24/11:30pm 25.5 SSE 8 11 1016.1 - 0.0 - - - - - - -
24/11:00pm 25.6 SE 8 11 1016.2 - 0.0 - - - - - - -
24/10:30pm 26.3 SE 11 15 1016.2 - 0.0 - - - - - - -
24/10:00pm 26.6 SE 12 16 1016.1 - 0.0 - - - - - - -
24/09:30pm 26.7 SE 10 14 1016.0 - 0.0 - - - - - - -
24/09:00pm 26.7 SE 8 11 1015.7 - 0.0 - - - - - - -
24/08:30pm 27.0 SE 8 11 1015.4 - 0.0 - - - - - - -
24/08:00pm 27.5 SE 8 11 1014.8 - 0.0 - - - - - - -
24/07:30pm 27.9 SE 9 12 1014.3 - 0.0 - - - - - - -
24/07:00pm 28.0 SE 8 9 1014.0 - 0.0 - - - - - - -
24/06:30pm 28.4 ESE 7 11 1013.6 - 0.0 - - - - - - -
24/06:00pm 28.8 E 7 9 1013.4 - 0.0 - - - - - - -
24/05:30pm 29.1 E 7 11 1013.2 - 0.0 - - - - - - -
24/05:00pm 29.8 E 6 9 1013.0 - 0.0 - - - - - - -
24/04:30pm 29.6 E 6 9 1012.7 - 0.0 - - - - - - -
24/04:00pm 29.9 E 9 13 1012.7 - 0.0 - - - - - - -
24/03:30pm 31.1 E 7 10 1012.5 - 0.0 - - - - - - -
24/03:00pm 30.7 E 9 12 1012.3 - 0.0 - - - - - - -
24/02:30pm 30.5 E 9 14 1012.6 - 0.0 - - - - - - -
24/02:00pm 30.5 E 9 13 1012.7 - 0.0 - - - - - - -
24/01:30pm 30.4 ESE 9 14 1013.0 - 0.0 - - - - - - -
24/01:00pm 30.8 SE 14 16 1013.5 - 0.0 - - - - - - -
24/12:30pm 30.3 ESE 13 17 1014.1 - 0.0 - - - - - - -
24/12:00pm 29.2 ESE 12 17 1014.5 - 0.0 - - - - - - -
24/11:30am 28.5 ESE 12 16 1014.9 - 0.0 - - - - - - -
24/11:00am 27.5 SE 13 17 1015.3 - 0.0 - - - - - - -
24/10:30am 26.5 SE 12 16 1015.6 - 0.0 - - - - - - -
24/10:00am 25.3 ESE 12 17 1015.8 - 0.0 - - - - - - -
24/09:30am 24.7 ESE 13 17 1015.9 - 0.0 - - - - - - -
24/09:00am 24.0 SE 10 15 1015.9 - 0.0 - - - - - - -
24/08:30am 22.5 SSE 8 11 1016.0 - 0.0 - - - - - - -
24/08:00am 21.2 SSE 8 9 1015.8 - 0.0 - - - - - - -
24/07:30am 20.2 S 8 11 1015.8 - 0.0 - - - - - - -
24/07:00am 19.6 S 6 8 1015.4 - 0.0 - - - - - - -
24/06:30am 19.7 S 6 8 1015.2 - 0.0 - - - - - - -
24/06:00am 19.8 SSE 7 9 1014.8 - 0.0 - - - - - - -
24/05:30am 19.9 SSE 6 8 1014.6 - 0.0 - - - - - - -
24/05:00am 20.1 SSE 6 8 1014.5 - 0.0 - - - - - - -
24/04:30am 20.5 SSE 6 8 1014.5 - 0.0 - - - - - - -
24/04:00am 21.0 SSE 6 9 1014.5 - 0.0 - - - - - - -
24/03:30am 21.3 SSE 7 9 1014.6 - 0.0 - - - - - - -
24/03:00am 21.4 SE 7 9 1014.6 - 0.0 - - - - - - -
24/02:30am 21.6 SE 6 8 1014.8 - 0.0 - - - - - - -
24/02:00am 21.9 SE 7 9 1015.0 - 0.0 - - - - - - -
24/01:30am 21.9 SE 7 9 1015.1 - 0.0 - - - - - - -
24/01:00am 22.2 SSE 8 11 1015.3 - 0.0 - - - - - - -
24/12:30am 22.5 SSE 9 12 1015.5 - 0.0 - - - - - - -
24/12:00am 22.9 SE 8 11 1015.6 - 0.0 - - - - - - -
 
Date/Time
CST
Temp

°C
Wind Pressure Rain
since 9am
mm
Weather Cloud Vis
km
Sea
Height
m
Swell
Dir
 
Speed
knots
Gust
knots
hPa Trend Height
m
Period
s
Dir
23/11:30pm 23.3 SE 10 13 1015.8 - 0.0 - - - - - - -
23/11:00pm 24.0 SE 13 19 1015.7 - 0.0 - - - - - - -
23/10:30pm 24.4 SE 14 18 1015.6 - 0.0 - - - - - - -
23/10:00pm 24.7 ESE 14 18 1015.4 - 0.0 - - - - - - -
23/09:30pm 25.1 ESE 12 17 1015.4 - 0.0 - - - - - - -
23/09:00pm 25.5 ESE 11 17 1015.0 - 0.0 - - - - - - -
23/08:30pm 25.8 ESE 10 16 1015.1 - 0.0 - - - - - - -
23/08:00pm 26.3 ESE 9 13 1014.7 - 0.0 - - - - - - -

Other Formats:

Comma delimited format used in spreadsheet applications
http://www.bom.gov.au/fwo/IDD60701/IDD60701.94140.axf

JavaScript Object Notation format (JSON) in row-major order
http://www.bom.gov.au/fwo/IDD60701/IDD60701.94140.json